Time;durP1;ratioP1;P1;durP2;ratioP2;P2;SDS_P1;SDS_P2;PMS_P1;PMS_P2;Temp;Humidity;BMP_temperature;BMP_pressure;BME280_temperature;BME280_humidity;BME280_pressure;Samples;Min_cycle;Max_cycle;Signal;HPM_P1;HPM_P2
2023/05/02 00:01:33;;;;;;;25.83;15.00;;;;;;;;;;5062690;28;20049;-83
2023/05/02 00:03:59;;;;;;;26.20;15.88;;;;;;;;;;5062748;28;20045;-82
2023/05/02 00:06:26;;;;;;;24.67;15.35;;;;;;;;;;5046233;28;20088;-82
2023/05/02 00:08:52;;;;;;;23.50;16.17;;;;;;;;;;5065258;28;20096;-82
2023/05/02 00:11:18;;;;;;;23.35;15.27;;;;;;;;;;5048142;28;20056;-83
2023/05/02 00:13:44;;;;;;;20.10;13.65;;;;;;;;;;5066523;28;20045;-83
2023/05/02 00:16:10;;;;;;;22.15;14.07;;;;;;;;;;5066462;28;20065;-82
2023/05/02 00:18:36;;;;;;;22.98;13.73;;;;;;;;;;5065620;28;20048;-83
2023/05/02 00:21:02;;;;;;;21.50;13.02;;;;;;;;;;5066407;28;20049;-82
2023/05/02 00:23:28;;;;;;;19.80;12.55;;;;;;;;;;5065945;28;20057;-83
2023/05/02 00:25:54;;;;;;;25.58;12.30;;;;;;;;;;5063109;28;20495;-82
2023/05/02 00:28:20;;;;;;;20.90;12.55;;;;;;;;;;5046539;28;20037;-83
2023/05/02 00:30:47;;;;;;;22.30;11.43;;;;;;;;;;5046204;28;20037;-83
2023/05/02 00:33:14;;;;;;;16.70;10.95;;;;;;;;;;5046699;28;20092;-81
2023/05/02 00:35:40;;;;;;;21.75;10.32;;;;;;;;;;5046725;28;20120;-82
2023/05/02 00:38:07;;;;;;;17.95;9.95;;;;;;;;;;5047089;28;20045;-82
2023/05/02 00:40:53;;;;;;;15.02;8.02;;;;;;;;;;5045828;28;20090;-83
2023/05/02 00:43:20;;;;;;;15.63;7.82;;;;;;;;;;5053138;28;20048;-83
2023/05/02 00:45:46;;;;;;;14.18;7.40;;;;;;;;;;5069687;28;20048;-82
2023/05/02 00:48:12;;;;;;;14.00;6.18;;;;;;;;;;5069380;28;20045;-81
2023/05/02 00:53:07;;;;;;;10.27;4.50;;;;;;;;;;5073572;28;20055;-82
2023/05/02 00:55:34;;;;;;;9.70;3.70;;;;;;;;;;5077264;28;20090;-83
2023/05/02 00:58:00;;;;;;;7.38;3.40;;;;;;;;;;5087168;28;20055;-83
2023/05/02 01:00:30;;;;;;;8.85;3.50;;;;;;;;;;5086003;28;20154;-83
2023/05/02 01:03:09;;;;;;;7.25;2.95;;;;;;;;;;5082372;28;20089;-82
2023/05/02 01:05:45;;;;;;;7.65;3.38;;;;;;;;;;5085604;28;20091;-82
2023/05/02 01:08:20;;;;;;;6.53;2.72;;;;;;;;;;5086518;28;20045;-84
2023/05/02 01:10:49;;;;;;;8.45;3.17;;;;;;;;;;5073145;28;20048;-82
2023/05/02 01:13:23;;;;;;;8.35;3.60;;;;;;;;;;5081731;28;20103;-82
2023/05/02 01:15:53;;;;;;;8.57;3.95;;;;;;;;;;5075958;28;20044;-81
2023/05/02 01:18:24;;;;;;;9.27;4.57;;;;;;;;;;5088155;28;20053;-82
2023/05/02 01:20:53;;;;;;;10.18;4.47;;;;;;;;;;5087101;28;20036;-81
2023/05/02 01:23:22;;;;;;;9.95;4.78;;;;;;;;;;5088402;28;20075;-82
2023/05/02 01:25:55;;;;;;;9.95;4.88;;;;;;;;;;5089995;28;20584;-82
2023/05/02 01:28:24;;;;;;;12.80;5.00;;;;;;;;;;5086796;28;20357;-83
2023/05/02 01:30:53;;;;;;;12.07;5.72;;;;;;;;;;5085527;28;20053;-82
2023/05/02 01:33:20;;;;;;;12.48;5.57;;;;;;;;;;5085621;28;20048;-82
2023/05/02 01:35:49;;;;;;;11.38;5.40;;;;;;;;;;5084809;28;20055;-82
2023/05/02 01:38:17;;;;;;;11.45;5.55;;;;;;;;;;5082100;28;20041;-83
2023/05/02 01:40:47;;;;;;;10.63;5.57;;;;;;;;;;5068009;28;20044;-82
2023/05/02 01:43:14;;;;;;;15.63;5.65;;;;;;;;;;5084447;28;20051;-83
2023/05/02 01:45:43;;;;;;;11.43;5.82;;;;;;;;;;5084510;28;20051;-83
2023/05/02 01:48:10;;;;;;;12.32;5.40;;;;;;;;;;5083766;28;20079;-82
2023/05/02 01:50:37;;;;;;;13.55;5.70;;;;;;;;;;5083952;28;20491;-82
2023/05/02 01:53:03;;;;;;;13.88;5.28;;;;;;;;;;5082013;28;20082;-82
2023/05/02 01:55:30;;;;;;;13.90;5.68;;;;;;;;;;5083367;28;20049;-83
2023/05/02 01:57:57;;;;;;;12.68;5.90;;;;;;;;;;5082492;28;20045;-82
2023/05/02 02:00:23;;;;;;;16.38;6.25;;;;;;;;;;5075076;28;20049;-82
2023/05/02 02:02:50;;;;;;;15.10;6.13;;;;;;;;;;5081436;28;20124;-82
2023/05/02 02:05:18;;;;;;;16.35;5.68;;;;;;;;;;5082603;28;20057;-81
2023/05/02 02:07:44;;;;;;;14.10;5.97;;;;;;;;;;5082431;28;20043;-82
2023/05/02 02:10:10;;;;;;;13.48;5.18;;;;;;;;;;5081767;28;20426;-82
2023/05/02 02:12:42;;;;;;;12.95;5.50;;;;;;;;;;5083676;28;20040;-83
2023/05/02 02:15:08;;;;;;;;;;;;;;;;;;5083797;28;20048;-82
2023/05/02 02:17:38;;;;;;;14.43;5.63;;;;;;;;;;5083426;28;19920;-82
2023/05/02 02:20:06;;;;;;;12.45;5.43;;;;;;;;;;5082118;28;20109;-83
2023/05/02 02:22:35;;;;;;;11.35;5.57;;;;;;;;;;5082562;28;20059;-83
2023/05/02 02:25:02;;;;;;;12.23;5.10;;;;;;;;;;5082567;28;20036;-83
2023/05/02 02:27:29;;;;;;;12.10;5.00;;;;;;;;;;5083941;28;20059;-83
2023/05/02 02:29:55;;;;;;;12.32;5.20;;;;;;;;;;5086083;28;20041;-82
2023/05/02 02:32:21;;;;;;;15.88;5.43;;;;;;;;;;5086242;28;20058;-83
2023/05/02 02:34:47;;;;;;;12.68;4.97;;;;;;;;;;5083641;28;20055;-82
2023/05/02 02:37:18;;;;;;;14.48;4.45;;;;;;;;;;5083748;28;20048;-83
2023/05/02 02:39:44;;;;;;;;;;;;;;;;;;5084711;28;20036;-81
2023/05/02 02:42:15;;;;;;;16.70;4.57;;;;;;;;;;5085711;28;19943;-82
2023/05/02 02:44:54;;;;;;;22.55;4.80;;;;;;;;;;5087144;28;20044;-83
2023/05/02 02:47:29;;;;;;;19.13;4.85;;;;;;;;;;5082868;28;20051;-82
2023/05/02 02:50:08;;;;;;;20.30;5.85;;;;;;;;;;5082002;28;20510;-82
2023/05/02 02:52:42;;;;;;;16.15;4.45;;;;;;;;;;5066288;28;20091;-83
2023/05/02 02:55:12;;;;;;;21.02;4.55;;;;;;;;;;5082676;28;20158;-83
2023/05/02 02:58:07;;;;;;;19.08;5.15;;;;;;;;;;5084284;28;20045;-82
2023/05/02 03:00:34;;;;;;;20.73;4.78;;;;;;;;;;5041457;28;20053;-84
2023/05/02 03:03:01;;;;;;;19.58;5.35;;;;;;;;;;5041851;28;20132;-83
2023/05/02 03:05:27;;;;;;;17.20;4.95;;;;;;;;;;5041800;28;20530;-83
2023/05/02 03:07:53;;;;;;;21.38;5.55;;;;;;;;;;5054589;28;20052;-82
2023/05/02 03:10:21;;;;;;;21.80;5.50;;;;;;;;;;5028865;28;20423;-82
2023/05/02 03:12:47;;;;;;;21.45;5.63;;;;;;;;;;5040923;28;20042;-83
2023/05/02 03:15:43;;;;;;;30.80;6.00;;;;;;;;;;5039509;28;20076;-82
2023/05/02 03:18:10;;;;;;;26.75;5.72;;;;;;;;;;5039681;28;20072;-82
2023/05/02 03:20:36;;;;;;;23.15;6.22;;;;;;;;;;5040026;28;20527;-83
2023/05/02 03:23:02;;;;;;;23.58;6.03;;;;;;;;;;5040434;28;20459;-83
2023/05/02 03:25:28;;;;;;;35.47;6.72;;;;;;;;;;5040271;28;20072;-83
2023/05/02 03:27:56;;;;;;;28.20;5.57;;;;;;;;;;5050981;28;20133;-83
2023/05/02 03:30:22;;;;;;;22.40;6.35;;;;;;;;;;5055546;28;20053;-83
2023/05/02 03:32:48;;;;;;;21.52;5.80;;;;;;;;;;5039427;28;20477;-84
2023/05/02 03:35:15;;;;;;;28.17;5.65;;;;;;;;;;5039128;28;20038;-83
2023/05/02 03:37:41;;;;;;;24.67;5.82;;;;;;;;;;5074477;28;20056;-83
2023/05/02 03:40:07;;;;;;;23.40;5.38;;;;;;;;;;5082577;28;20094;-82
2023/05/02 03:42:40;;;;;;;20.85;5.15;;;;;;;;;;5084702;28;20119;-82
2023/05/02 03:45:07;;;;;;;24.10;5.50;;;;;;;;;;5086054;28;20399;-83
2023/05/02 03:47:33;;;;;;;21.95;5.65;;;;;;;;;;5091202;28;20511;-82
2023/05/02 03:49:59;;;;;;;21.50;5.10;;;;;;;;;;5088307;28;20052;-81
2023/05/02 03:52:25;;;;;;;24.55;5.70;;;;;;;;;;5081195;28;20084;-83
2023/05/02 03:54:51;;;;;;;22.80;5.57;;;;;;;;;;5083090;28;20041;-83
2023/05/02 03:57:18;;;;;;;26.63;6.35;;;;;;;;;;5080925;28;20032;-82
2023/05/02 03:59:44;;;;;;;21.92;5.43;;;;;;;;;;5082302;28;20052;-83
2023/05/02 04:02:13;;;;;;;21.73;5.38;;;;;;;;;;5082096;28;20106;-82
2023/05/02 04:04:40;;;;;;;24.85;5.35;;;;;;;;;;5081018;28;20094;-83
2023/05/02 04:07:06;;;;;;;23.30;4.95;;;;;;;;;;5081101;28;20063;-83
2023/05/02 04:09:33;;;;;;;23.90;4.85;;;;;;;;;;5080632;28;20056;-83
2023/05/02 04:11:59;;;;;;;20.50;5.13;;;;;;;;;;5083216;28;20049;-82
2023/05/02 04:14:25;;;;;;;22.42;5.50;;;;;;;;;;5079149;28;20040;-82
2023/05/02 04:16:51;;;;;;;22.33;4.38;;;;;;;;;;5081325;28;20111;-82
2023/05/02 04:19:18;;;;;;;19.25;4.28;;;;;;;;;;5082208;28;20075;-82
2023/05/02 04:21:44;;;;;;;21.05;4.28;;;;;;;;;;5078887;28;20037;-82
2023/05/02 04:24:11;;;;;;;20.88;4.10;;;;;;;;;;5064013;28;20483;-83
2023/05/02 04:26:37;;;;;;;20.23;3.78;;;;;;;;;;5072928;28;20452;-83
2023/05/02 04:29:03;;;;;;;18.65;4.18;;;;;;;;;;5084168;28;20391;-83
2023/05/02 04:31:30;;;;;;;18.77;4.28;;;;;;;;;;5083721;28;20048;-81
2023/05/02 04:33:56;;;;;;;17.77;3.88;;;;;;;;;;5083939;28;20041;-83
2023/05/02 04:36:23;;;;;;;22.27;3.72;;;;;;;;;;5082795;28;20056;-81
2023/05/02 04:38:49;;;;;;;18.33;4.00;;;;;;;;;;5087171;28;20040;-82
2023/05/02 04:41:16;;;;;;;14.73;3.20;;;;;;;;;;5086428;28;20122;-82
2023/05/02 04:43:42;;;;;;;15.45;3.67;;;;;;;;;;5086247;28;20068;-82
2023/05/02 04:46:08;;;;;;;11.73;3.13;;;;;;;;;;5082997;28;20048;-83
2023/05/02 04:48:34;;;;;;;20.15;3.67;;;;;;;;;;5081237;28;20059;-82
2023/05/02 04:51:00;;;;;;;21.20;3.75;;;;;;;;;;5087616;28;20127;-82
2023/05/02 04:53:27;;;;;;;18.17;3.55;;;;;;;;;;5103908;28;20405;-81
2023/05/02 04:55:53;;;;;;;13.48;2.97;;;;;;;;;;5086644;28;20118;-82
2023/05/02 04:58:19;;;;;;;13.40;3.00;;;;;;;;;;5078678;28;20056;-82
2023/05/02 05:00:45;;;;;;;17.83;3.72;;;;;;;;;;5079280;28;20053;-84
2023/05/02 05:03:11;;;;;;;17.15;3.17;;;;;;;;;;5077428;28;20393;-82
2023/05/02 05:05:37;;;;;;;11.98;2.78;;;;;;;;;;5081953;28;20059;-82
2023/05/02 05:08:04;;;;;;;10.00;2.70;;;;;;;;;;5082428;28;20048;-82
2023/05/02 05:10:30;;;;;;;14.38;2.92;;;;;;;;;;5082344;28;20044;-82
2023/05/02 05:12:56;;;;;;;11.65;2.42;;;;;;;;;;5083488;28;20550;-83
2023/05/02 05:15:24;;;;;;;9.13;2.20;;;;;;;;;;5080332;28;20108;-84
2023/05/02 05:17:50;;;;;;;8.18;2.25;;;;;;;;;;5071884;28;20045;-81
2023/05/02 05:20:16;;;;;;;13.55;2.67;;;;;;;;;;5070197;28;20089;-82
2023/05/02 05:22:42;;;;;;;13.82;2.15;;;;;;;;;;5071862;28;20171;-83
2023/05/02 05:25:09;;;;;;;7.78;2.20;;;;;;;;;;5071877;28;20041;-82
2023/05/02 05:27:36;;;;;;;13.27;2.17;;;;;;;;;;5072792;28;20053;-82
2023/05/02 05:30:02;;;;;;;11.63;2.53;;;;;;;;;;5073963;28;20048;-83
2023/05/02 05:32:29;;;;;;;7.80;1.85;;;;;;;;;;5071035;28;20044;-82
2023/05/02 05:34:55;;;;;;;11.55;2.30;;;;;;;;;;5074187;28;20051;-83
2023/05/02 05:37:21;;;;;;;9.45;2.33;;;;;;;;;;5075628;28;20098;-83
2023/05/02 05:39:48;;;;;;;8.73;2.13;;;;;;;;;;5070653;28;20047;-82
2023/05/02 05:42:14;;;;;;;9.70;2.17;;;;;;;;;;5074955;28;20082;-82
2023/05/02 05:44:40;;;;;;;10.77;2.47;;;;;;;;;;5072189;28;20048;-82
2023/05/02 05:47:06;;;;;;;12.57;2.40;;;;;;;;;;5075199;28;20041;-84
2023/05/02 05:49:35;;;;;;;7.70;1.83;;;;;;;;;;5075481;28;20071;-83
2023/05/02 05:52:01;;;;;;;9.32;2.05;;;;;;;;;;5073639;28;20059;-82
2023/05/02 05:54:27;;;;;;;10.73;2.60;;;;;;;;;;5072477;28;20082;-85
2023/05/02 05:56:53;;;;;;;11.65;2.58;;;;;;;;;;5072897;28;20048;-82
2023/05/02 05:59:19;;;;;;;11.07;2.55;;;;;;;;;;5075018;28;20037;-83
2023/05/02 06:01:45;;;;;;;10.68;2.58;;;;;;;;;;5067412;28;20047;-83
2023/05/02 06:04:12;;;;;;;11.82;2.63;;;;;;;;;;5071325;28;20094;-85
2023/05/02 06:06:38;;;;;;;9.65;2.50;;;;;;;;;;5071190;28;20036;-83
2023/05/02 06:09:04;;;;;;;9.95;2.28;;;;;;;;;;5071056;28;20049;-83
2023/05/02 06:11:30;;;;;;;16.08;3.20;;;;;;;;;;5055463;28;20087;-83
2023/05/02 06:13:56;;;;;;;11.95;2.70;;;;;;;;;;5073445;28;20056;-83
2023/05/02 06:16:22;;;;;;;16.20;3.25;;;;;;;;;;5073260;28;20049;-83
2023/05/02 06:18:50;;;;;;;15.45;3.10;;;;;;;;;;5076729;28;20052;-82
2023/05/02 06:21:16;;;;;;;15.95;3.00;;;;;;;;;;5081421;28;20116;-82
2023/05/02 06:23:42;;;;;;;15.13;3.08;;;;;;;;;;5065660;28;20045;-84
2023/05/02 06:26:09;;;;;;;11.90;2.55;;;;;;;;;;5068363;28;20040;-83
2023/05/02 06:28:35;;;;;;;13.88;3.13;;;;;;;;;;5074740;28;20095;-82
2023/05/02 06:31:01;;;;;;;15.48;3.35;;;;;;;;;;5082063;28;20075;-82
2023/05/02 06:33:31;;;;;;;17.65;3.63;;;;;;;;;;5080493;28;20040;-81
2023/05/02 06:35:58;;;;;;;18.67;3.67;;;;;;;;;;5079141;28;20568;-82
2023/05/02 06:38:24;;;;;;;14.85;3.13;;;;;;;;;;5081802;28;20067;-82
2023/05/02 06:40:50;;;;;;;13.65;3.25;;;;;;;;;;5063974;28;20044;-81
2023/05/02 06:43:16;;;;;;;15.30;3.35;;;;;;;;;;5079334;28;20044;-81
2023/05/02 06:45:43;;;;;;;14.82;3.42;;;;;;;;;;5081707;28;20049;-81
2023/05/02 06:48:09;;;;;;;15.07;3.78;;;;;;;;;;5081403;28;20052;-82
2023/05/02 06:50:35;;;;;;;13.05;2.97;;;;;;;;;;5083748;28;20044;-81
2023/05/02 06:53:01;;;;;;;16.17;3.65;;;;;;;;;;5084142;28;20414;-81
2023/05/02 06:55:28;;;;;;;14.88;3.45;;;;;;;;;;5082638;28;20102;-83
2023/05/02 06:57:54;;;;;;;12.63;2.92;;;;;;;;;;5080840;28;20044;-81
2023/05/02 07:00:20;;;;;;;17.02;3.38;;;;;;;;;;5079802;28;20050;-81
2023/05/02 07:02:47;;;;;;;17.15;3.25;;;;;;;;;;5079272;28;20062;-81
2023/05/02 07:05:17;;;;;;;18.42;3.75;;;;;;;;;;5080330;28;20124;-82
2023/05/02 07:07:43;;;;;;;13.52;2.85;;;;;;;;;;5080810;28;20056;-82
2023/05/02 07:10:10;;;;;;;14.27;3.05;;;;;;;;;;5080732;28;20045;-81
2023/05/02 07:12:37;;;;;;;11.68;3.08;;;;;;;;;;5081661;28;20487;-82
2023/05/02 07:15:03;;;;;;;13.75;3.20;;;;;;;;;;5081320;28;20049;-82
2023/05/02 07:17:29;;;;;;;16.33;2.65;;;;;;;;;;5081634;28;20045;-82
2023/05/02 07:19:55;;;;;;;9.10;2.38;;;;;;;;;;5078446;28;20044;-82
2023/05/02 07:22:21;;;;;;;13.90;2.80;;;;;;;;;;5079678;28;20032;-83
2023/05/02 07:24:47;;;;;;;11.00;2.55;;;;;;;;;;5081856;28;20045;-82
2023/05/02 07:27:13;;;;;;;14.15;2.88;;;;;;;;;;5072675;28;20041;-83
2023/05/02 07:29:41;;;;;;;12.00;2.97;;;;;;;;;;5061921;28;20410;-82
2023/05/02 07:32:07;;;;;;;14.32;2.95;;;;;;;;;;5071434;28;20052;-82
2023/05/02 07:34:33;;;;;;;13.60;3.22;;;;;;;;;;5080403;28;20076;-82
2023/05/02 07:37:00;;;;;;;13.07;3.00;;;;;;;;;;5080117;28;20463;-82
2023/05/02 07:39:26;;;;;;;12.13;3.00;;;;;;;;;;5080976;28;20092;-83
2023/05/02 07:41:53;;;;;;;9.98;3.30;;;;;;;;;;5078773;28;20048;-81
2023/05/02 07:44:19;;;;;;;13.15;2.38;;;;;;;;;;5078303;28;20040;-82
2023/05/02 07:46:45;;;;;;;12.35;2.88;;;;;;;;;;5080854;28;20049;-81
2023/05/02 07:49:12;;;;;;;9.68;2.58;;;;;;;;;;5077615;28;20092;-81
2023/05/02 07:51:38;;;;;;;14.02;3.10;;;;;;;;;;5080290;28;20061;-82
2023/05/02 07:54:14;;;;;;;12.52;3.03;;;;;;;;;;5079995;28;20056;-82
2023/05/02 07:56:41;;;;;;;11.73;2.90;;;;;;;;;;5077959;28;20109;-81
2023/05/02 07:59:08;;;;;;;14.88;2.90;;;;;;;;;;5081340;28;20114;-82
2023/05/02 08:01:34;;;;;;;11.00;2.70;;;;;;;;;;5083043;28;20063;-82
2023/05/02 08:04:00;;;;;;;13.68;2.22;;;;;;;;;;5081829;28;20037;-82
2023/05/02 08:06:27;;;;;;;11.23;2.47;;;;;;;;;;5078698;28;20048;-82
2023/05/02 08:08:53;;;;;;;10.15;2.40;;;;;;;;;;5073917;28;20047;-82
2023/05/02 08:11:24;;;;;;;14.02;3.00;;;;;;;;;;5080130;28;20041;-82
2023/05/02 08:13:50;;;;;;;14.65;3.20;;;;;;;;;;5077370;28;20044;-81
2023/05/02 08:16:16;;;;;;;9.95;2.50;;;;;;;;;;5077801;28;20052;-81
2023/05/02 08:18:42;;;;;;;10.50;2.75;;;;;;;;;;5080140;28;20517;-82
2023/05/02 08:21:10;;;;;;;13.60;2.97;;;;;;;;;;5074415;28;20391;-83
2023/05/02 08:23:39;;;;;;;11.70;2.88;;;;;;;;;;5075814;28;20449;-81
2023/05/02 08:26:05;;;;;;;10.73;2.67;;;;;;;;;;5078953;28;20094;-82
2023/05/02 08:28:31;;;;;;;9.38;2.53;;;;;;;;;;5083486;28;20119;-82
2023/05/02 08:30:57;;;;;;;9.77;2.75;;;;;;;;;;5083573;28;20088;-82
2023/05/02 08:33:23;;;;;;;12.38;2.97;;;;;;;;;;5082326;28;20098;-83
2023/05/02 08:35:49;;;;;;;15.23;2.92;;;;;;;;;;5065477;28;20529;-84
2023/05/02 08:38:15;;;;;;;12.00;3.08;;;;;;;;;;5079584;28;20053;-82
2023/05/02 08:40:41;;;;;;;17.02;3.10;;;;;;;;;;5063443;28;20045;-82
2023/05/02 08:43:07;;;;;;;11.77;2.92;;;;;;;;;;5078192;28;20513;-82
2023/05/02 08:45:40;;;;;;;11.70;3.33;;;;;;;;;;5082965;28;20048;-82
2023/05/02 08:48:09;;;;;;;14.55;3.05;;;;;;;;;;5082415;28;20048;-82
2023/05/02 08:50:37;;;;;;;11.15;3.20;;;;;;;;;;5083238;28;20481;-82
2023/05/02 08:53:05;;;;;;;11.15;2.88;;;;;;;;;;5089433;28;20056;-82
2023/05/02 08:55:32;;;;;;;12.38;3.10;;;;;;;;;;5090425;28;20041;-82
2023/05/02 08:57:59;;;;;;;12.32;2.95;;;;;;;;;;5084817;28;20068;-82
2023/05/02 09:00:26;;;;;;;11.27;3.40;;;;;;;;;;5083388;28;20040;-82
2023/05/02 09:03:06;;;;;;;11.68;3.03;;;;;;;;;;5086043;28;20048;-81
2023/05/02 09:05:33;;;;;;;12.75;3.50;;;;;;;;;;5079635;28;20082;-81
2023/05/02 09:07:59;;;;;;;13.80;3.38;;;;;;;;;;5082883;28;20088;-82
2023/05/02 09:10:28;;;;;;;16.67;3.70;;;;;;;;;;5083264;28;20041;-82
2023/05/02 09:12:54;;;;;;;10.15;2.90;;;;;;;;;;5082297;28;20098;-82
2023/05/02 09:15:20;;;;;;;11.38;3.20;;;;;;;;;;5081790;28;20071;-82
2023/05/02 09:17:47;;;;;;;11.45;3.00;;;;;;;;;;5082584;28;20109;-82
2023/05/02 09:20:14;;;;;;;9.05;2.70;;;;;;;;;;5082429;28;20044;-81
2023/05/02 09:22:48;;;;;;;8.68;2.30;;;;;;;;;;5089435;28;20051;-83
2023/05/02 09:25:15;;;;;;;12.05;2.38;;;;;;;;;;5093972;28;20045;-82
2023/05/02 09:27:54;;;;;;;11.20;2.42;;;;;;;;;;5087321;28;20047;-82
2023/05/02 09:30:22;;;;;;;10.18;2.30;;;;;;;;;;5085534;28;20075;-82
2023/05/02 09:32:50;;;;;;;9.82;2.25;;;;;;;;;;5078401;28;20048;-82
2023/05/02 09:35:22;;;;;;;9.20;2.20;;;;;;;;;;5082464;28;20053;-81
2023/05/02 09:37:50;;;;;;;8.35;2.05;;;;;;;;;;5073566;28;20087;-81
2023/05/02 09:40:16;;;;;;;11.82;1.95;;;;;;;;;;5078105;28;20070;-81
2023/05/02 09:42:42;;;;;;;9.02;2.30;;;;;;;;;;5084286;28;20048;-83
2023/05/02 09:45:09;;;;;;;5.25;1.52;;;;;;;;;;5083952;28;20052;-83
2023/05/02 09:47:35;;;;;;;8.38;2.10;;;;;;;;;;5063567;28;20049;-81
2023/05/02 09:50:03;;;;;;;8.13;1.67;;;;;;;;;;5064730;28;20157;-81
2023/05/02 09:52:29;;;;;;;7.68;1.67;;;;;;;;;;5082905;28;20060;-82
2023/05/02 09:54:55;;;;;;;5.53;1.52;;;;;;;;;;5081931;28;20044;-82
2023/05/02 09:57:22;;;;;;;5.95;1.40;;;;;;;;;;5081756;28;20052;-82
2023/05/02 09:59:55;;;;;;;8.10;1.50;;;;;;;;;;5081897;28;20410;-82
2023/05/02 10:02:22;;;;;;;7.00;1.80;;;;;;;;;;5082400;28;20040;-83
2023/05/02 10:04:48;;;;;;;6.78;1.50;;;;;;;;;;5075892;28;20086;-83
2023/05/02 10:07:16;;;;;;;8.15;1.95;;;;;;;;;;5069830;28;20049;-84
2023/05/02 10:09:46;;;;;;;7.22;1.40;;;;;;;;;;5079909;28;20047;-82
2023/05/02 10:12:15;;;;;;;9.70;1.55;;;;;;;;;;5082698;28;20070;-83
2023/05/02 10:14:45;;;;;;;11.02;1.45;;;;;;;;;;5078592;28;20098;-83
2023/05/02 10:17:12;;;;;;;7.65;1.50;;;;;;;;;;5078908;28;20071;-81
2023/05/02 10:19:44;;;;;;;8.45;1.60;;;;;;;;;;5081413;28;20131;-82
2023/05/02 10:22:12;;;;;;;8.20;1.70;;;;;;;;;;5080822;28;20098;-82
2023/05/02 10:24:40;;;;;;;7.38;1.50;;;;;;;;;;5082431;28;20063;-83
2023/05/02 10:27:06;;;;;;;6.28;1.60;;;;;;;;;;5081833;28;20045;-82
2023/05/02 10:29:33;;;;;;;5.13;1.40;;;;;;;;;;5082653;28;20074;-81
2023/05/02 10:32:00;;;;;;;8.05;1.65;;;;;;;;;;5082353;28;20037;-82
2023/05/02 10:34:27;;;;;;;5.68;1.42;;;;;;;;;;5081411;28;20068;-83
2023/05/02 10:36:55;;;;;;;6.22;1.50;;;;;;;;;;5071333;28;20066;-84
2023/05/02 10:39:23;;;;;;;8.07;1.70;;;;;;;;;;5080214;28;20044;-83
2023/05/02 10:41:52;;;;;;;8.93;1.58;;;;;;;;;;5082299;28;20079;-83
2023/05/02 10:44:31;;;;;;;5.82;1.35;;;;;;;;;;5080121;28;20046;-82
2023/05/02 10:46:57;;;;;;;6.30;1.40;;;;;;;;;;5069544;28;20377;-82
2023/05/02 10:49:26;;;;;;;8.05;1.63;;;;;;;;;;5078500;28;20048;-83
2023/05/02 10:51:52;;;;;;;6.63;1.45;;;;;;;;;;5080917;28;20071;-83
2023/05/02 10:54:19;;;;;;;6.65;1.40;;;;;;;;;;5080313;28;20049;-82
2023/05/02 10:57:04;;;;;;;6.93;1.50;;;;;;;;;;5080632;28;20146;-82
2023/05/02 10:59:32;;;;;;;10.43;1.73;;;;;;;;;;5080944;28;20468;-83
2023/05/02 11:01:58;;;;;;;9.85;1.55;;;;;;;;;;5081713;28;20071;-83
2023/05/02 11:04:26;;;;;;;8.13;1.90;;;;;;;;;;5081779;28;20047;-82
2023/05/02 11:06:58;;;;;;;9.25;1.67;;;;;;;;;;5080633;28;20089;-82
2023/05/02 11:09:25;;;;;;;7.68;1.70;;;;;;;;;;5085771;28;20045;-83
2023/05/02 11:11:53;;;;;;;8.20;1.60;;;;;;;;;;5082637;28;20102;-83
2023/05/02 11:14:25;;;;;;;8.50;1.90;;;;;;;;;;5081426;28;20045;-83
2023/05/02 11:17:00;;;;;;;7.63;1.92;;;;;;;;;;5082478;28;20045;-82
2023/05/02 11:19:26;;;;;;;7.40;1.55;;;;;;;;;;5081678;28;20071;-82
2023/05/02 11:21:53;;;;;;;8.68;1.73;;;;;;;;;;5081000;28;20483;-82
2023/05/02 11:24:38;;;;;;;8.25;1.63;;;;;;;;;;5082827;28;20076;-82
2023/05/02 11:27:23;;;;;;;6.15;1.45;;;;;;;;;;5085855;28;20033;-84
2023/05/02 11:29:55;;;;;;;9.75;1.80;;;;;;;;;;5081254;28;20052;-82
2023/05/02 11:32:24;;;;;;;10.00;1.70;;;;;;;;;;5064385;28;20044;-81
2023/05/02 11:34:51;;;;;;;6.40;1.75;;;;;;;;;;5058141;28;20048;-83
2023/05/02 11:37:18;;;;;;;6.90;1.50;;;;;;;;;;5070102;28;20445;-82
2023/05/02 11:39:45;;;;;;;7.03;1.60;;;;;;;;;;5076334;28;20070;-83
2023/05/02 11:42:30;;;;;;;8.82;1.48;;;;;;;;;;5059846;28;20051;-83
2023/05/02 11:44:57;;;;;;;7.20;1.25;;;;;;;;;;5070463;28;20040;-83
2023/05/02 11:47:23;;;;;;;7.30;1.40;;;;;;;;;;5077589;28;20041;-81
2023/05/02 11:49:49;;;;;;;11.13;1.50;;;;;;;;;;5078901;28;20044;-82
2023/05/02 11:52:15;;;;;;;7.57;1.42;;;;;;;;;;5079322;28;20160;-82
2023/05/02 11:54:41;;;;;;;7.65;1.40;;;;;;;;;;5078806;28;20045;-82
2023/05/02 11:57:07;;;;;;;4.75;1.33;;;;;;;;;;5077515;28;20051;-82
2023/05/02 11:59:50;;;;;;;5.82;1.30;;;;;;;;;;5079029;28;20395;-82
2023/05/02 12:02:17;;;;;;;7.85;1.38;;;;;;;;;;5081955;28;20051;-83
2023/05/02 12:04:43;;;;;;;5.60;1.60;;;;;;;;;;5082045;28;20406;-83
2023/05/02 12:07:09;;;;;;;7.00;1.40;;;;;;;;;;5080186;28;20092;-83
2023/05/02 12:09:36;;;;;;;6.93;1.27;;;;;;;;;;5080412;28;20044;-82
2023/05/02 12:12:02;;;;;;;7.35;1.70;;;;;;;;;;5075481;28;20055;-82
2023/05/02 12:14:31;;;;;;;6.53;1.55;;;;;;;;;;5068010;28;20091;-83
2023/05/02 12:16:58;;;;;;;5.25;1.30;;;;;;;;;;5080225;28;20047;-83
2023/05/02 12:19:24;;;;;;;6.43;1.30;;;;;;;;;;5083707;28;20045;-82
2023/05/02 12:21:50;;;;;;;7.82;1.65;;;;;;;;;;5084154;28;20044;-82
2023/05/02 12:24:16;;;;;;;9.02;1.75;;;;;;;;;;5084610;28;20096;-82
2023/05/02 12:26:42;;;;;;;7.28;1.60;;;;;;;;;;5082896;28;20392;-83
2023/05/02 12:29:08;;;;;;;7.88;1.55;;;;;;;;;;5081470;28;20048;-83
2023/05/02 12:31:35;;;;;;;10.45;1.90;;;;;;;;;;5084000;28;20044;-83
2023/05/02 12:34:02;;;;;;;9.57;1.95;;;;;;;;;;5083684;28;20047;-82
2023/05/02 12:36:28;;;;;;;8.52;1.77;;;;;;;;;;5083554;28;20041;-82
2023/05/02 12:38:57;;;;;;;8.23;1.65;;;;;;;;;;5085759;28;20063;-82
2023/05/02 12:41:37;;;;;;;6.68;1.60;;;;;;;;;;5086627;28;20040;-84
2023/05/02 12:44:03;;;;;;;10.05;1.65;;;;;;;;;;5066211;28;20056;-83
2023/05/02 12:46:30;;;;;;;11.40;1.60;;;;;;;;;;5084398;28;20041;-82
2023/05/02 12:49:04;;;;;;;10.98;1.80;;;;;;;;;;5082164;28;20076;-82
2023/05/02 12:51:31;;;;;;;7.78;1.73;;;;;;;;;;5064509;28;20099;-82
2023/05/02 12:53:57;;;;;;;8.30;1.80;;;;;;;;;;5067133;28;20041;-83
2023/05/02 12:56:26;;;;;;;6.07;1.83;;;;;;;;;;5082535;28;20087;-83
2023/05/02 12:58:52;;;;;;;6.40;1.52;;;;;;;;;;5095212;28;20065;-82
2023/05/02 13:01:18;;;;;;;7.10;1.73;;;;;;;;;;5104211;28;20466;-82
2023/05/02 13:03:44;;;;;;;5.97;1.35;;;;;;;;;;5103566;28;20052;-82
2023/05/02 13:06:10;;;;;;;5.97;1.77;;;;;;;;;;5103419;28;20115;-82
2023/05/02 13:08:36;;;;;;;5.90;1.30;;;;;;;;;;5088258;28;20041;-84
2023/05/02 13:11:03;;;;;;;6.53;1.40;;;;;;;;;;5082436;28;20048;-83
2023/05/02 13:13:30;;;;;;;6.38;1.40;;;;;;;;;;5082355;28;20036;-84
2023/05/02 13:15:56;;;;;;;7.35;1.48;;;;;;;;;;5082235;28;20051;-82
2023/05/02 13:18:22;;;;;;;5.75;1.10;;;;;;;;;;5086090;28;20044;-83
2023/05/02 13:20:48;;;;;;;6.47;1.30;;;;;;;;;;5085785;28;20510;-83
2023/05/02 13:23:15;;;;;;;6.15;1.52;;;;;;;;;;5084877;28;20045;-82
2023/05/02 13:25:41;;;;;;;5.88;1.13;;;;;;;;;;5083623;28;20553;-82
2023/05/02 13:28:07;;;;;;;5.38;1.10;;;;;;;;;;5081363;28;20048;-83
2023/05/02 13:30:34;;;;;;;7.57;1.95;;;;;;;;;;5084117;28;20036;-82
2023/05/02 13:33:01;;;;;;;7.10;1.25;;;;;;;;;;5082528;28;20435;-83
2023/05/02 13:35:27;;;;;;;4.82;1.10;;;;;;;;;;5083307;28;20123;-84
2023/05/02 13:37:53;;;;;;;4.55;1.10;;;;;;;;;;5082424;28;20045;-83
2023/05/02 13:40:19;;;;;;;4.35;1.10;;;;;;;;;;5083598;28;20098;-83
2023/05/02 13:42:45;;;;;;;8.45;1.13;;;;;;;;;;5081884;28;20056;-84
2023/05/02 13:45:12;;;;;;;2.92;0.82;;;;;;;;;;5083678;28;20048;-81
2023/05/02 13:47:38;;;;;;;4.93;0.70;;;;;;;;;;5083772;28;20048;-83
2023/05/02 13:50:04;;;;;;;3.75;0.82;;;;;;;;;;5083390;28;20105;-84
2023/05/02 13:52:30;;;;;;;4.15;0.80;;;;;;;;;;5101089;28;20466;-82
2023/05/02 13:54:56;;;;;;;2.35;0.60;;;;;;;;;;5103703;28;20048;-82
2023/05/02 13:57:22;;;;;;;4.22;0.73;;;;;;;;;;5106302;28;20047;-84
2023/05/02 13:59:48;;;;;;;4.00;1.00;;;;;;;;;;5084766;28;20049;-83
2023/05/02 14:02:14;;;;;;;5.55;0.88;;;;;;;;;;5085148;28;20064;-82
2023/05/02 14:04:40;;;;;;;2.67;0.80;;;;;;;;;;5080835;28;20061;-83
2023/05/02 14:07:06;;;;;;;4.22;1.08;;;;;;;;;;5081681;28;20063;-82
2023/05/02 14:09:32;;;;;;;3.35;0.70;;;;;;;;;;5081793;28;20052;-83
2023/05/02 14:11:58;;;;;;;3.58;0.82;;;;;;;;;;5086526;28;20048;-83
2023/05/02 14:14:24;;;;;;;4.72;0.65;;;;;;;;;;5099985;28;20091;-83
2023/05/02 14:16:50;;;;;;;3.10;0.60;;;;;;;;;;5078213;28;20048;-83
2023/05/02 14:19:17;;;;;;;5.78;1.00;;;;;;;;;;5083099;28;20044;-83
2023/05/02 14:21:43;;;;;;;2.78;0.70;;;;;;;;;;5081740;28;20047;-83
2023/05/02 14:24:11;;;;;;;4.47;0.80;;;;;;;;;;5081204;28;20048;-83
2023/05/02 14:26:37;;;;;;;6.13;0.90;;;;;;;;;;5082534;28;20051;-82
2023/05/02 14:29:03;;;;;;;4.43;1.00;;;;;;;;;;5082299;28;20083;-82
2023/05/02 14:31:29;;;;;;;4.25;0.80;;;;;;;;;;5080698;28;20045;-83
2023/05/02 14:33:55;;;;;;;4.75;1.02;;;;;;;;;;5080075;28;20044;-83
2023/05/02 14:36:22;;;;;;;6.30;1.10;;;;;;;;;;5074824;28;20044;-82
2023/05/02 14:38:48;;;;;;;5.97;1.30;;;;;;;;;;5079043;28;20131;-83
2023/05/02 14:41:14;;;;;;;4.65;1.00;;;;;;;;;;5081856;28;20064;-82